KHSV 191753Z 14005KT 10SM FEW055 FEW085 35/20 A3005 RMK AO2 SLP168 T03500200 10350 20239 58004 $